createdAt,value
2023-05-02T00:01:29.047Z,22.52
2023-05-02T00:03:58.580Z,22.15
2023-05-02T00:06:28.486Z,21.60
2023-05-02T00:08:57.969Z,22.30
2023-05-02T00:11:27.466Z,21.23
2023-05-02T00:13:57.107Z,21.63
2023-05-02T00:16:26.335Z,20.67
2023-05-02T00:18:55.567Z,19.73
2023-05-02T00:21:24.909Z,19.38
2023-05-02T00:23:59.284Z,18.25
2023-05-02T00:26:29.900Z,19.90
2023-05-02T00:29:00.266Z,19.10
2023-05-02T00:31:29.577Z,19.48
2023-05-02T00:33:58.789Z,18.70
2023-05-02T00:36:28.479Z,17.70
2023-05-02T00:38:57.687Z,18.27
2023-05-02T00:41:27.122Z,17.05
2023-05-02T00:43:56.342Z,18.08
2023-05-02T00:46:25.825Z,16.98
2023-05-02T00:48:55.139Z,17.35
2023-05-02T00:51:24.404Z,15.32
2023-05-02T00:53:54.510Z,16.98
2023-05-02T00:56:23.732Z,17.83
2023-05-02T00:58:53.241Z,16.48
2023-05-02T01:02:12.960Z,17.88
2023-05-02T01:05:18.426Z,16.15
2023-05-02T01:08:29.688Z,15.73
2023-05-02T01:11:19.236Z,16.75
2023-05-02T01:13:53.753Z,16.77
2023-05-02T01:16:26.821Z,15.45
2023-05-02T01:18:59.291Z,14.65
2023-05-02T01:21:29.121Z,16.23
2023-05-02T01:24:25.477Z,14.32
2023-05-02T01:27:21.069Z,15.43
2023-05-02T01:29:54.494Z,15.48
2023-05-02T01:32:27.750Z,19.85
2023-05-02T01:34:59.890Z,15.15
2023-05-02T01:37:31.804Z,15.48
2023-05-02T01:40:14.927Z,15.10
2023-05-02T01:42:49.386Z,15.93
2023-05-02T01:45:20.792Z,16.08
2023-05-02T01:47:55.245Z,16.27
2023-05-02T01:50:30.724Z,16.02
2023-05-02T01:53:02.880Z,15.20
2023-05-02T01:55:36.606Z,14.52
2023-05-02T01:58:11.929Z,16.13
2023-05-02T02:00:46.813Z,16.02
2023-05-02T02:03:24.121Z,14.20
2023-05-02T02:05:56.653Z,15.00
2023-05-02T02:08:29.549Z,16.63
2023-05-02T02:11:13.867Z,14.95
2023-05-02T02:14:02.815Z,15.07
2023-05-02T02:16:38.680Z,14.88
2023-05-02T02:19:14.456Z,16.50
2023-05-02T02:21:49.510Z,15.23
2023-05-02T02:24:23.867Z,15.75
2023-05-02T02:26:53.742Z,14.82
2023-05-02T02:29:23.071Z,14.77
2023-05-02T02:31:52.214Z,14.45
2023-05-02T02:34:23.164Z,15.43
2023-05-02T02:37:12.807Z,14.45
2023-05-02T02:40:35.189Z,14.60
2023-05-02T02:43:22.165Z,14.50
2023-05-02T02:46:10.452Z,15.38
2023-05-02T02:49:22.460Z,14.90
2023-05-02T02:52:34.895Z,14.70
2023-05-02T02:55:48.681Z,12.82
2023-05-02T02:58:59.721Z,12.10
2023-05-02T03:01:33.719Z,12.32
2023-05-02T03:04:06.510Z,12.38
2023-05-02T03:06:35.957Z,12.02
2023-05-02T03:09:05.285Z,12.05
2023-05-02T03:11:34.498Z,13.05
2023-05-02T03:14:03.788Z,11.63
2023-05-02T03:16:41.151Z,11.15
2023-05-02T03:19:11.017Z,11.80
2023-05-02T03:21:40.375Z,11.82
2023-05-02T03:24:09.883Z,12.20
2023-05-02T03:26:39.372Z,11.13
2023-05-02T03:29:09.137Z,11.90
2023-05-02T03:31:38.471Z,10.77
2023-05-02T03:34:08.074Z,10.93
2023-05-02T03:36:37.384Z,10.93
2023-05-02T03:39:07.850Z,10.85
2023-05-02T03:41:37.649Z,12.65
2023-05-02T03:44:07.473Z,11.93
2023-05-02T03:46:37.357Z,10.70
2023-05-02T03:49:06.787Z,11.00
2023-05-02T03:51:36.666Z,12.43
2023-05-02T03:54:06.197Z,10.90
2023-05-02T03:56:35.575Z,11.70
2023-05-02T03:59:05.074Z,11.68
2023-05-02T04:01:34.509Z,11.18
2023-05-02T04:04:04.028Z,11.52
2023-05-02T04:06:33.541Z,10.68
2023-05-02T04:09:02.946Z,11.32
2023-05-02T04:11:32.382Z,10.93
2023-05-02T04:14:01.780Z,10.77
2023-05-02T04:16:31.394Z,11.38
2023-05-02T04:19:01.431Z,10.85
2023-05-02T04:21:30.920Z,10.60
2023-05-02T04:24:00.711Z,10.32
2023-05-02T04:26:30.027Z,10.43
2023-05-02T04:28:59.911Z,11.35
2023-05-02T04:31:30.414Z,10.18
2023-05-02T04:34:00.087Z,11.15
2023-05-02T04:36:30.025Z,11.40
2023-05-02T04:38:59.776Z,10.70
2023-05-02T04:41:29.616Z,10.85
2023-05-02T04:43:59.612Z,10.55
2023-05-02T04:46:29.290Z,9.88
2023-05-02T04:48:58.778Z,11.50
2023-05-02T04:51:30.064Z,9.82
2023-05-02T04:53:59.421Z,8.48
2023-05-02T04:56:28.820Z,9.77
2023-05-02T04:58:58.300Z,8.90
2023-05-02T05:01:35.400Z,9.00
2023-05-02T05:04:05.201Z,8.23
2023-05-02T05:06:35.003Z,9.55
2023-05-02T05:09:04.686Z,11.00
2023-05-02T05:11:34.093Z,10.30
2023-05-02T05:14:05.585Z,8.75
2023-05-02T05:16:35.841Z,9.30
2023-05-02T05:19:06.400Z,9.18
2023-05-02T05:21:36.080Z,9.43
2023-05-02T05:24:05.951Z,10.27
2023-05-02T05:26:35.429Z,9.25
2023-05-02T05:29:04.944Z,8.80
2023-05-02T05:31:34.459Z,9.65
2023-05-02T05:34:05.531Z,9.18
2023-05-02T05:36:35.078Z,9.57
2023-05-02T05:39:04.704Z,9.18
2023-05-02T05:41:35.284Z,8.20
2023-05-02T05:44:04.875Z,9.00
2023-05-02T05:46:34.483Z,8.57
2023-05-02T05:49:04.120Z,8.00
2023-05-02T05:51:33.458Z,7.03
2023-05-02T05:54:04.377Z,7.85
2023-05-02T05:56:34.969Z,8.80
2023-05-02T05:59:04.339Z,11.40
2023-05-02T06:01:35.160Z,8.02
2023-05-02T06:04:06.047Z,7.43
2023-05-02T06:06:35.760Z,7.15
2023-05-02T06:09:05.418Z,6.68
2023-05-02T06:11:34.876Z,6.40
2023-05-02T06:14:04.859Z,6.90
2023-05-02T06:19:19.571Z,7.28
2023-05-02T06:24:34.766Z,7.07
2023-05-02T06:27:04.139Z,7.03
2023-05-02T06:29:33.369Z,6.25
2023-05-02T06:32:02.594Z,5.50
2023-05-02T06:34:35.062Z,6.97
2023-05-02T06:37:04.544Z,6.00
2023-05-02T06:39:35.088Z,6.32
2023-05-02T06:42:04.559Z,7.43
2023-05-02T06:44:33.758Z,7.78
2023-05-02T06:47:03.060Z,6.43
2023-05-02T06:49:32.570Z,7.30
2023-05-02T06:52:01.900Z,5.80
2023-05-02T06:54:31.354Z,5.32
2023-05-02T06:57:01.991Z,5.82
2023-05-02T06:59:31.242Z,6.35
2023-05-02T07:02:00.821Z,6.05
2023-05-02T07:04:30.739Z,6.45
2023-05-02T07:07:00.062Z,6.45
2023-05-02T07:09:29.317Z,7.10
2023-05-02T07:11:58.640Z,7.30
2023-05-02T07:14:27.871Z,6.65
2023-05-02T07:16:57.197Z,7.00
2023-05-02T07:19:26.725Z,7.85
2023-05-02T07:21:56.057Z,6.93
2023-05-02T07:24:25.255Z,5.97
2023-05-02T07:26:54.512Z,5.60
2023-05-02T07:29:23.803Z,6.05
2023-05-02T07:31:53.176Z,6.15
2023-05-02T07:34:29.127Z,6.88
2023-05-02T07:37:04.520Z,7.00
2023-05-02T07:39:35.407Z,6.20
2023-05-02T07:42:04.800Z,5.75
2023-05-02T07:44:37.107Z,5.30
2023-05-02T07:47:07.573Z,6.45
2023-05-02T07:49:37.899Z,6.20
2023-05-02T07:52:07.386Z,6.38
2023-05-02T07:54:36.849Z,6.85
2023-05-02T07:57:09.312Z,7.00
2023-05-02T07:59:38.624Z,7.03
2023-05-02T08:02:08.489Z,8.80
2023-05-02T08:04:37.892Z,8.23
2023-05-02T08:07:07.652Z,11.13
2023-05-02T08:09:37.143Z,7.72
2023-05-02T08:12:07.080Z,7.78
2023-05-02T08:14:37.465Z,9.77
2023-05-02T08:17:06.690Z,8.25
2023-05-02T08:19:36.030Z,8.27
2023-05-02T08:22:05.453Z,8.98
2023-05-02T08:24:34.959Z,9.38
2023-05-02T08:27:07.794Z,7.93
2023-05-02T08:29:38.634Z,7.97
2023-05-02T08:32:08.334Z,7.93
2023-05-02T08:34:39.097Z,8.15
2023-05-02T08:37:14.248Z,8.50
2023-05-02T08:39:43.621Z,7.97
2023-05-02T08:42:13.211Z,8.20
2023-05-02T08:44:42.618Z,9.25
2023-05-02T08:47:16.109Z,9.07
2023-05-02T08:49:47.030Z,8.40
2023-05-02T08:52:18.900Z,8.90
2023-05-02T08:54:48.978Z,8.68
2023-05-02T08:57:18.256Z,9.30
2023-05-02T08:59:47.468Z,8.23
2023-05-02T09:02:42.440Z,7.97
2023-05-02T09:05:17.152Z,8.13
2023-05-02T09:07:52.422Z,8.07
2023-05-02T09:13:40.966Z,7.68
2023-05-02T09:16:19.505Z,8.60
2023-05-02T09:18:53.405Z,8.82
2023-05-02T09:21:27.467Z,9.07
2023-05-02T09:24:04.085Z,9.60
2023-05-02T09:26:34.527Z,9.15
2023-05-02T09:29:06.478Z,8.93
2023-05-02T09:34:23.505Z,9.93
2023-05-02T09:36:55.069Z,8.82
2023-05-02T09:39:27.437Z,9.27
2023-05-02T09:41:57.414Z,9.05
2023-05-02T09:44:39.316Z,10.13
2023-05-02T09:47:10.354Z,9.23
2023-05-02T09:49:50.675Z,8.68
2023-05-02T09:52:24.917Z,9.20
2023-05-02T09:54:54.355Z,8.75
2023-05-02T09:57:24.356Z,9.35
2023-05-02T10:00:00.551Z,9.35
2023-05-02T10:02:40.108Z,9.05
2023-05-02T10:05:14.463Z,9.18
2023-05-02T10:07:43.944Z,10.23
2023-05-02T10:10:20.469Z,9.45
2023-05-02T10:12:54.447Z,9.75
2023-05-02T10:15:28.387Z,9.20
2023-05-02T10:18:05.103Z,9.40
2023-05-02T10:20:41.939Z,9.77
2023-05-02T10:23:11.979Z,9.95
2023-05-02T10:25:42.163Z,10.82
2023-05-02T10:28:14.508Z,12.93
2023-05-02T10:30:44.800Z,12.48
2023-05-02T10:33:17.674Z,14.57
2023-05-02T10:35:48.458Z,15.43
2023-05-02T10:38:24.739Z,19.05
2023-05-02T10:41:27.884Z,18.77
2023-05-02T10:44:00.275Z,17.58
2023-05-02T10:46:38.720Z,14.93
2023-05-02T10:49:14.707Z,13.23
2023-05-02T10:51:45.905Z,13.18
2023-05-02T10:54:26.229Z,13.30
2023-05-02T10:57:09.599Z,12.20
2023-05-02T10:59:44.060Z,11.13
2023-05-02T11:02:26.237Z,12.32
2023-05-02T11:05:08.502Z,12.85
2023-05-02T11:07:39.315Z,12.23
2023-05-02T11:10:23.182Z,11.60
2023-05-02T11:13:02.244Z,10.57
2023-05-02T11:15:35.232Z,11.55
2023-05-02T11:18:08.805Z,11.50
2023-05-02T11:20:43.196Z,12.80
2023-05-02T11:23:27.521Z,12.07
2023-05-02T11:26:04.346Z,12.88
2023-05-02T11:28:42.462Z,12.70
2023-05-02T11:31:32.763Z,12.45
2023-05-02T11:34:04.519Z,13.32
2023-05-02T11:36:35.572Z,12.13
2023-05-02T11:39:06.818Z,11.77
2023-05-02T11:41:45.609Z,12.43
2023-05-02T11:44:14.762Z,11.90
2023-05-02T11:46:44.446Z,11.63
2023-05-02T11:49:15.104Z,12.10
2023-05-02T11:51:44.767Z,12.23
2023-05-02T11:54:23.976Z,10.85
2023-05-02T11:56:53.215Z,11.45
2023-05-02T11:59:22.424Z,11.30
2023-05-02T12:01:56.904Z,11.95
2023-05-02T12:04:27.654Z,12.38
2023-05-02T12:07:00.381Z,11.93
2023-05-02T12:09:29.658Z,11.50
2023-05-02T12:11:59.720Z,12.05
2023-05-02T12:14:34.595Z,13.00
2023-05-02T12:17:06.090Z,12.23
2023-05-02T12:19:38.108Z,13.63
2023-05-02T12:22:08.828Z,13.68
2023-05-02T12:24:38.379Z,11.93
2023-05-02T12:27:18.122Z,12.52
2023-05-02T12:29:49.748Z,12.02
2023-05-02T12:32:34.432Z,12.95
2023-05-02T12:35:05.335Z,13.60
2023-05-02T12:37:34.557Z,19.00
2023-05-02T12:40:04.084Z,15.85
2023-05-02T12:42:35.514Z,16.85
2023-05-02T12:45:04.876Z,15.73
2023-05-02T12:47:47.604Z,15.57
2023-05-02T12:50:16.989Z,13.55
2023-05-02T12:53:01.155Z,13.63
2023-05-02T12:55:30.399Z,14.65
2023-05-02T12:58:11.344Z,14.70
2023-05-02T13:00:45.434Z,16.02
2023-05-02T13:03:15.746Z,15.07
2023-05-02T13:05:44.906Z,16.33
2023-05-02T13:08:14.133Z,15.40
2023-05-02T13:10:44.178Z,15.68
2023-05-02T13:13:13.687Z,14.73
2023-05-02T13:15:43.035Z,15.85
2023-05-02T13:18:12.527Z,15.65
2023-05-02T13:20:41.846Z,16.90
2023-05-02T13:23:11.336Z,18.55
2023-05-02T13:25:40.883Z,17.08
2023-05-02T13:28:10.216Z,16.65
2023-05-02T13:30:39.717Z,17.02
2023-05-02T13:33:09.279Z,15.27
2023-05-02T13:35:38.874Z,16.70
2023-05-02T13:38:08.183Z,17.00
2023-05-02T13:40:37.520Z,15.73
2023-05-02T13:43:06.911Z,15.48
2023-05-02T13:45:36.626Z,17.75
2023-05-02T13:48:06.390Z,17.20
2023-05-02T13:50:44.229Z,17.40
2023-05-02T13:53:13.570Z,18.30
2023-05-02T13:55:42.861Z,17.33
2023-05-02T13:58:12.263Z,17.50
2023-05-02T14:00:41.671Z,16.20
2023-05-02T14:03:19.199Z,16.98
2023-05-02T14:05:48.713Z,17.00
2023-05-02T14:08:20.145Z,17.83
2023-05-02T14:10:49.704Z,16.08
2023-05-02T14:13:19.677Z,16.95
2023-05-02T14:15:49.450Z,15.70
2023-05-02T14:18:18.884Z,16.15
2023-05-02T14:20:48.289Z,17.30
2023-05-02T14:23:17.522Z,17.45
2023-05-02T14:25:46.783Z,16.52
2023-05-02T14:28:15.978Z,17.83
2023-05-02T14:30:45.110Z,16.52
2023-05-02T14:33:14.390Z,17.45
2023-05-02T14:35:43.903Z,17.20
2023-05-02T14:38:13.350Z,17.60
2023-05-02T14:40:42.550Z,18.02
2023-05-02T14:43:14.166Z,17.75
2023-05-02T14:45:43.389Z,18.05
2023-05-02T14:48:14.929Z,17.73
2023-05-02T14:50:44.683Z,18.83
2023-05-02T14:53:14.025Z,18.08
2023-05-02T14:55:44.178Z,17.17
2023-05-02T14:58:13.630Z,17.83
2023-05-02T15:00:43.159Z,18.05
2023-05-02T15:03:12.421Z,18.20
2023-05-02T15:05:42.841Z,19.05
2023-05-02T15:08:11.988Z,17.70
2023-05-02T15:10:41.674Z,18.33
2023-05-02T15:13:11.118Z,17.15
2023-05-02T15:15:40.396Z,17.15
2023-05-02T15:18:09.709Z,17.42
2023-05-02T15:20:39.097Z,17.73
2023-05-02T15:23:08.299Z,17.17
2023-05-02T15:25:37.484Z,17.65
2023-05-02T15:28:09.053Z,18.55
2023-05-02T15:30:38.323Z,18.88
2023-05-02T15:33:07.868Z,18.33
2023-05-02T15:35:37.357Z,18.90
2023-05-02T15:38:07.587Z,18.27
2023-05-02T15:40:36.803Z,20.45
2023-05-02T15:43:07.067Z,19.38
2023-05-02T15:45:36.276Z,19.83
2023-05-02T15:48:05.729Z,19.35
2023-05-02T15:50:35.086Z,20.80
2023-05-02T15:53:04.256Z,18.77
2023-05-02T15:55:36.305Z,20.20
2023-05-02T15:58:05.822Z,19.67
2023-05-02T16:00:34.982Z,18.60
2023-05-02T16:03:05.029Z,19.83
2023-05-02T16:05:35.710Z,20.05
2023-05-02T16:08:05.309Z,21.13
2023-05-02T16:10:37.231Z,19.35
2023-05-02T16:13:06.398Z,18.73
2023-05-02T16:15:36.079Z,19.77
2023-05-02T16:18:05.612Z,19.55
2023-05-02T16:20:37.968Z,18.80
2023-05-02T16:23:07.160Z,20.33
2023-05-02T16:25:36.679Z,21.52
2023-05-02T16:28:06.706Z,22.60
2023-05-02T16:30:38.642Z,22.45
2023-05-02T16:33:08.096Z,23.58
2023-05-02T16:35:37.260Z,24.40
2023-05-02T16:38:09.975Z,23.85
2023-05-02T16:40:39.466Z,24.45
2023-05-02T16:43:09.777Z,24.30
2023-05-02T16:45:39.712Z,24.83
2023-05-02T16:48:09.019Z,23.58
2023-05-02T16:50:38.175Z,22.92
2023-05-02T16:53:07.460Z,21.75
2023-05-02T16:55:36.602Z,20.67
2023-05-02T16:58:05.930Z,21.10
2023-05-02T17:00:35.241Z,22.90
2023-05-02T17:03:05.621Z,22.27
2023-05-02T17:05:35.403Z,21.75
2023-05-02T17:08:04.719Z,23.30
2023-05-02T17:10:34.097Z,23.20
2023-05-02T17:13:03.790Z,23.63
2023-05-02T17:15:39.455Z,22.98
2023-05-02T17:18:09.030Z,23.08
2023-05-02T17:20:38.736Z,23.20
2023-05-02T17:23:08.157Z,27.05
2023-05-02T17:25:51.023Z,23.77
2023-05-02T17:28:21.156Z,23.73
2023-05-02T17:30:55.302Z,23.63
2023-05-02T17:33:26.168Z,23.45
2023-05-02T17:35:55.486Z,22.77
2023-05-02T17:38:24.690Z,23.73
2023-05-02T17:40:54.140Z,25.23
2023-05-02T17:43:23.488Z,23.60
2023-05-02T17:45:52.678Z,24.17
2023-05-02T17:48:22.276Z,23.73
2023-05-02T17:50:52.004Z,23.20
2023-05-02T17:53:21.192Z,23.73
2023-05-02T17:55:51.165Z,23.73
2023-05-02T17:58:20.792Z,24.05
2023-05-02T18:00:50.019Z,24.08
2023-05-02T18:03:19.444Z,24.80
2023-05-02T18:05:48.896Z,24.40
2023-05-02T18:08:18.139Z,24.20
2023-05-02T18:10:47.371Z,23.23
2023-05-02T18:13:16.665Z,24.55
2023-05-02T18:15:55.470Z,23.67
2023-05-02T18:18:24.904Z,25.13
2023-05-02T18:20:54.241Z,24.55
2023-05-02T18:23:23.606Z,25.88
2023-05-02T18:25:52.854Z,24.52
2023-05-02T18:28:22.241Z,23.88
2023-05-02T18:30:51.474Z,23.00
2023-05-02T18:33:20.728Z,25.63
2023-05-02T18:35:50.902Z,23.83
2023-05-02T18:38:20.728Z,25.50
2023-05-02T18:40:51.388Z,24.77
2023-05-02T18:43:20.643Z,23.20
2023-05-02T18:45:49.896Z,23.33
2023-05-02T18:48:19.105Z,23.67
2023-05-02T18:50:48.447Z,22.77
2023-05-02T18:53:17.781Z,22.83
2023-05-02T18:55:48.116Z,22.95
2023-05-02T18:58:17.283Z,22.55
2023-05-02T19:00:46.635Z,23.52
2023-05-02T19:03:16.194Z,23.27
2023-05-02T19:05:45.778Z,20.83
2023-05-02T19:08:15.028Z,22.15
2023-05-02T19:10:44.219Z,21.23
2023-05-02T19:13:13.852Z,22.95
2023-05-02T19:15:54.022Z,22.20
2023-05-02T19:18:24.136Z,21.20
2023-05-02T19:20:53.581Z,21.90
2023-05-02T19:23:22.795Z,21.23
2023-05-02T19:25:52.249Z,20.35
2023-05-02T19:28:21.498Z,21.48
2023-05-02T19:30:50.701Z,20.98
2023-05-02T19:33:20.318Z,21.00
2023-05-02T19:35:51.295Z,20.88
2023-05-02T19:38:21.272Z,21.10
2023-05-02T19:40:50.493Z,21.10
2023-05-02T19:43:19.641Z,20.77
2023-05-02T19:45:48.852Z,20.38
2023-05-02T19:48:18.139Z,19.45
2023-05-02T19:50:47.406Z,20.10
2023-05-02T19:53:16.687Z,20.25
2023-05-02T19:55:46.008Z,19.48
2023-05-02T19:58:15.242Z,19.23
2023-05-02T20:00:44.422Z,19.13
2023-05-02T20:03:13.754Z,19.73
2023-05-02T20:05:42.952Z,19.90
2023-05-02T20:08:12.233Z,19.80
2023-05-02T20:10:41.740Z,20.30
2023-05-02T20:13:14.828Z,21.70
2023-05-02T20:15:44.089Z,20.45
2023-05-02T20:18:13.292Z,20.42
2023-05-02T20:20:42.661Z,20.75
2023-05-02T20:23:12.408Z,22.05
2023-05-02T20:25:42.932Z,21.90
2023-05-02T20:28:12.596Z,27.17
2023-05-02T20:30:42.959Z,28.48
2023-05-02T20:33:16.169Z,30.73
2023-05-02T20:36:06.508Z,29.65
2023-05-02T20:38:36.714Z,29.35
2023-05-02T20:41:08.771Z,29.20
2023-05-02T20:43:40.667Z,29.08
2023-05-02T20:46:15.011Z,26.88
2023-05-02T20:48:44.547Z,27.20
2023-05-02T20:51:14.100Z,25.80
2023-05-02T20:53:43.636Z,25.95
2023-05-02T20:56:12.823Z,25.27
2023-05-02T20:58:42.161Z,25.38
2023-05-02T21:01:11.791Z,25.95
2023-05-02T21:03:42.077Z,26.05
2023-05-02T21:06:11.494Z,25.58
2023-05-02T21:08:40.793Z,26.45
2023-05-02T21:11:17.504Z,25.77
2023-05-02T21:13:46.857Z,25.27
2023-05-02T21:16:21.073Z,25.35
2023-05-02T21:18:50.518Z,23.67
2023-05-02T21:21:19.691Z,23.83
2023-05-02T21:23:48.928Z,24.00
2023-05-02T21:26:21.223Z,25.67
2023-05-02T21:28:54.474Z,23.27
2023-05-02T21:31:23.903Z,22.95
2023-05-02T21:33:53.231Z,21.45
2023-05-02T21:36:23.545Z,23.13
2023-05-02T21:38:54.525Z,24.00
2023-05-02T21:41:23.947Z,24.80
2023-05-02T21:43:53.533Z,24.08
2023-05-02T21:46:23.048Z,23.00
2023-05-02T21:48:52.413Z,22.90
2023-05-02T21:51:22.248Z,23.38
2023-05-02T21:53:51.916Z,24.52
2023-05-02T21:56:21.297Z,23.92
2023-05-02T21:58:52.261Z,24.52
2023-05-02T22:01:21.776Z,23.83
2023-05-02T22:03:51.245Z,24.10
2023-05-02T22:06:20.647Z,23.55
2023-05-02T22:08:49.990Z,22.30
2023-05-02T22:11:19.485Z,23.63
2023-05-02T22:13:49.489Z,23.30
2023-05-02T22:16:18.965Z,22.48
2023-05-02T22:18:50.452Z,22.88
2023-05-02T22:21:19.892Z,25.25
2023-05-02T22:23:49.287Z,21.90
2023-05-02T22:26:18.646Z,19.30
2023-05-02T22:28:48.106Z,19.80
2023-05-02T22:31:17.926Z,19.08
2023-05-02T22:33:50.820Z,19.27
2023-05-02T22:36:21.538Z,20.67
2023-05-02T22:38:50.872Z,18.90
2023-05-02T22:41:20.170Z,18.35
2023-05-02T22:43:49.602Z,17.48
2023-05-02T22:46:19.353Z,18.10
2023-05-02T22:48:50.139Z,18.85
2023-05-02T22:51:20.022Z,17.83
2023-05-02T22:53:50.154Z,19.25
2023-05-02T22:56:19.883Z,17.27
2023-05-02T22:58:50.851Z,17.95
2023-05-02T23:01:20.267Z,18.42
2023-05-02T23:03:50.280Z,17.67
2023-05-02T23:06:19.962Z,16.77
2023-05-02T23:08:49.356Z,17.50
2023-05-02T23:11:18.779Z,16.95
2023-05-02T23:13:48.072Z,17.02
2023-05-02T23:16:17.466Z,19.48
2023-05-02T23:18:48.646Z,17.42
2023-05-02T23:21:18.791Z,16.88
2023-05-02T23:23:48.185Z,17.13
2023-05-02T23:26:17.527Z,16.90
2023-05-02T23:28:46.878Z,16.52
2023-05-02T23:31:16.318Z,16.98
2023-05-02T23:33:46.863Z,18.20
2023-05-02T23:36:16.520Z,16.38
2023-05-02T23:38:45.972Z,16.27
2023-05-02T23:41:15.446Z,16.27
2023-05-02T23:43:45.293Z,15.50
2023-05-02T23:46:14.597Z,18.10
2023-05-02T23:48:43.994Z,18.30
2023-05-02T23:51:13.361Z,18.55
2023-05-02T23:53:42.642Z,19.13
2023-05-02T23:56:12.140Z,18.25
2023-05-02T23:58:41.619Z,20.95
